Time;durP1;ratioP1;P1;durP2;ratioP2;P2;SDS_P1;SDS_P2;PMS_P1;PMS_P2;Temp;Humidity;BMP_temperature;BMP_pressure;BME280_temperature;BME280_humidity;BME280_pressure;Samples;Min_cycle;Max_cycle;Signal;HPM_P1;HPM_P2
2021/07/04 00:00:38;;;;;;;7.10;6.50;;;18.50;99.90;;;;;;5093563;28;20197;-84
2021/07/04 00:03:04;;;;;;;8.43;6.90;;;18.40;99.90;;;;;;5092810;28;20170;-83
2021/07/04 00:05:40;;;;;;;8.02;6.85;;;18.30;99.90;;;;;;5092477;28;20154;-83
2021/07/04 00:08:07;;;;;;;13.38;7.45;;;18.20;99.90;;;;;;5092550;28;20180;-84
2021/07/04 00:10:37;;;;;;;10.10;7.30;;;18.30;99.90;;;;;;5076975;28;20174;-84
2021/07/04 00:13:04;;;;;;;9.38;7.82;;;18.40;99.90;;;;;;5093857;28;20633;-83
2021/07/04 00:15:38;;;;;;;12.25;7.85;;;18.30;99.90;;;;;;5093081;28;20304;-83
2021/07/04 00:18:04;;;;;;;9.80;8.55;;;18.30;99.90;;;;;;5093473;28;20160;-84
2021/07/04 00:20:30;;;;;;;11.48;7.45;;;18.30;99.90;;;;;;5092678;28;20194;-84
2021/07/04 00:22:55;;;;;;;8.40;7.60;;;18.20;99.90;;;;;;5092539;28;20659;-84
2021/07/04 00:25:25;;;;;;;8.35;7.55;;;18.20;99.90;;;;;;5075687;28;20203;-84
2021/07/04 00:27:52;;;;;;;14.52;8.82;;;18.20;99.90;;;;;;5092409;28;20261;-84
2021/07/04 00:30:19;;;;;;;14.02;8.65;;;18.20;99.90;;;;;;5092806;28;20188;-84
2021/07/04 00:32:44;;;;;;;14.73;7.70;;;18.20;99.90;;;;;;5091795;28;20162;-84
2021/07/04 00:35:11;;;;;;;11.15;8.07;;;18.20;99.90;;;;;;5092325;28;20208;-84
2021/07/04 00:37:37;;;;;;;9.43;8.55;;;18.10;99.90;;;;;;5093829;28;20227;-84
2021/07/04 00:40:06;;;;;;;16.05;8.88;;;18.10;99.90;;;;;;5091917;28;20645;-84
2021/07/04 00:42:31;;;;;;;10.35;8.27;;;18.10;99.90;;;;;;5092347;28;20615;-84
2021/07/04 00:44:57;;;;;;;10.13;8.40;;;18.10;99.90;;;;;;5092471;28;20177;-84
2021/07/04 00:47:23;;;;;;;10.43;8.85;;;18.10;99.90;;;;;;5093811;28;20170;-84
2021/07/04 00:49:48;;;;;;;14.00;9.50;;;18.10;99.90;;;;;;5092098;28;20522;-84
2021/07/04 00:52:15;;;;;;;14.32;9.25;;;18.10;99.90;;;;;;5093578;28;20506;-83
2021/07/04 00:54:41;;;;;;;22.23;11.05;;;18.20;99.90;;;;;;5093958;28;20162;-84
2021/07/04 00:57:07;;;;;;;22.75;11.13;;;18.30;99.90;;;;;;5092267;28;20166;-84
2021/07/04 00:59:34;;;;;;;17.35;10.68;;;18.30;99.90;;;;;;5092024;28;20319;-84
2021/07/04 01:02:00;;;;;;;18.33;10.80;;;18.30;99.90;;;;;;5093009;28;20281;-84
2021/07/04 01:04:29;;;;;;;22.83;11.02;;;18.40;99.90;;;;;;5092296;28;20271;-84
2021/07/04 01:06:55;;;;;;;20.50;12.02;;;18.50;99.90;;;;;;5093545;28;20170;-85
2021/07/04 01:09:21;;;;;;;16.60;11.75;;;18.50;99.90;;;;;;5092031;28;20166;-84
2021/07/04 01:11:48;;;;;;;20.17;12.23;;;18.60;99.90;;;;;;5096718;28;20522;-84
2021/07/04 01:14:14;;;;;;;13.38;11.63;;;18.70;99.90;;;;;;5094343;28;20221;-84
2021/07/04 01:16:40;;;;;;;12.55;11.15;;;18.70;99.90;;;;;;5095915;28;20546;-84
2021/07/04 01:19:06;;;;;;;18.92;10.05;;;18.80;99.90;;;;;;5095851;28;20162;-84
2021/07/04 01:21:33;;;;;;;12.75;9.40;;;18.70;99.90;;;;;;5096762;28;20196;-84
2021/07/04 01:23:59;;;;;;;25.40;11.10;;;18.70;99.90;;;;;;5095808;28;20172;-84
2021/07/04 01:26:25;;;;;;;33.53;12.20;;;18.70;99.90;;;;;;5095649;28;20658;-84
2021/07/04 01:28:51;;;;;;;13.70;9.80;;;18.80;99.90;;;;;;5095572;28;20170;-83
2021/07/04 01:31:17;;;;;;;9.85;8.85;;;18.80;99.90;;;;;;5095346;28;20170;-84
2021/07/04 01:33:42;;;;;;;20.55;11.07;;;18.70;99.90;;;;;;5095366;28;20170;-84
2021/07/04 01:36:10;;;;;;;16.13;9.88;;;18.70;99.90;;;;;;5095545;28;20249;-84
2021/07/04 01:38:36;;;;;;;14.90;6.15;;;18.80;99.90;;;;;;5078566;28;20606;-83
2021/07/04 01:41:02;;;;;;;21.85;6.43;;;18.70;99.90;;;;;;5095113;28;20206;-83
2021/07/04 01:43:28;;;;;;;28.27;7.85;;;18.60;99.90;;;;;;5061666;28;20174;-84
2021/07/04 01:45:54;;;;;;;20.70;8.50;;;18.70;99.90;;;;;;5096578;28;20248;-84
2021/07/04 01:48:20;;;;;;;12.88;8.25;;;18.80;99.90;;;;;;5100598;28;20157;-84
2021/07/04 01:50:49;;;;;;;8.82;7.60;;;18.90;99.90;;;;;;5115943;28;20311;-83
2021/07/04 01:53:15;;;;;;;11.80;7.55;;;18.80;99.90;;;;;;5096869;28;20182;-83
2021/07/04 01:55:41;;;;;;;10.40;7.68;;;18.80;99.90;;;;;;5106681;28;20170;-83
2021/07/04 01:58:07;;;;;;;7.65;7.00;;;18.80;99.90;;;;;;5116013;28;20166;-85
2021/07/04 02:00:35;;;;;;;9.10;8.27;;;18.90;99.90;;;;;;5100722;28;20773;-84
2021/07/04 02:03:04;;;;;;;9.35;8.38;;;18.90;99.90;;;;;;5094959;28;20194;-83
2021/07/04 02:05:30;;;;;;;8.93;8.07;;;19.00;99.90;;;;;;5096279;28;20253;-84
2021/07/04 02:07:56;;;;;;;14.68;9.82;;;19.00;99.90;;;;;;5094992;28;20170;-84
2021/07/04 02:10:30;;;;;;;8.45;7.68;;;19.00;99.90;;;;;;5095003;28;20489;-84
2021/07/04 02:12:57;;;;;;;15.15;6.20;;;18.90;99.90;;;;;;5107353;28;20188;-84
2021/07/04 02:15:28;;;;;;;6.80;5.50;;;18.90;99.90;;;;;;5112841;28;20151;-86
2021/07/04 02:17:55;;;;;;;11.55;5.68;;;18.80;99.90;;;;;;5113572;28;20154;-85
2021/07/04 02:20:37;;;;;;;10.55;6.00;;;18.80;99.90;;;;;;5094404;28;20277;-84
2021/07/04 02:23:18;;;;;;;9.98;7.07;;;18.90;99.90;;;;;;5093888;28;20181;-84
2021/07/04 02:25:46;;;;;;;12.68;7.72;;;19.00;99.90;;;;;;5094156;28;20177;-84
2021/07/04 02:28:14;;;;;;;12.65;8.32;;;19.00;99.90;;;;;;5095886;28;20180;-84
2021/07/04 02:30:42;;;;;;;13.55;8.20;;;19.00;99.90;;;;;;5094518;28;20186;-84
2021/07/04 02:33:09;;;;;;;9.20;8.18;;;19.00;99.90;;;;;;5095577;28;20174;-84
2021/07/04 02:35:38;;;;;;;11.43;6.75;;;19.00;99.90;;;;;;5095769;28;20166;-84
2021/07/04 02:38:05;;;;;;;8.25;6.35;;;19.00;99.90;;;;;;5094170;28;20197;-84
2021/07/04 02:40:31;;;;;;;15.43;7.70;;;19.00;99.90;;;;;;5095648;28;20173;-84
2021/07/04 02:42:57;;;;;;;11.10;6.90;;;19.00;99.90;;;;;;5092393;28;20177;-84
2021/07/04 02:45:23;;;;;;;12.20;6.63;;;18.90;99.90;;;;;;5094262;28;20665;-85
2021/07/04 02:47:49;;;;;;;12.82;6.60;;;18.80;99.90;;;;;;5094147;28;20217;-84
2021/07/04 02:50:20;;;;;;;8.27;6.82;;;18.80;99.90;;;;;;5094035;28;20190;-85
2021/07/04 02:52:46;;;;;;;8.75;7.55;;;18.70;99.90;;;;;;5077611;28;20253;-84
2021/07/04 02:55:12;;;;;;;10.98;9.05;;;18.70;99.90;;;;;;5093464;28;20166;-85
2021/07/04 02:57:37;;;;;;;8.10;7.38;;;18.80;99.90;;;;;;5095291;28;20162;-84
2021/07/04 03:00:08;;;;;;;11.10;8.30;;;18.80;99.90;;;;;;5093526;28;20244;-84
2021/07/04 03:02:34;;;;;;;12.95;8.98;;;18.90;99.90;;;;;;5093609;28;20173;-84
2021/07/04 03:05:00;;;;;;;20.20;13.70;;;19.00;99.90;;;;;;5093933;28;20163;-84
2021/07/04 03:07:25;;;;;;;11.10;9.90;;;19.00;99.90;;;;;;5094072;28;20619;-84
2021/07/04 03:09:51;;;;;;;13.85;10.10;;;19.10;99.90;;;;;;5095056;28;20201;-84
2021/07/04 03:12:17;;;;;;;15.23;11.55;;;19.00;99.90;;;;;;5094649;28;20170;-83
2021/07/04 03:14:42;;;;;;;18.65;12.90;;;19.10;99.90;;;;;;5076750;28;20669;-83
2021/07/04 03:17:08;;;;;;;17.05;11.30;;;19.10;99.90;;;;;;5093570;28;20260;-83
2021/07/04 03:19:34;;;;;;;12.98;10.32;;;19.10;99.90;;;;;;5093329;28;20204;-83
2021/07/04 03:21:59;;;;;;;9.55;8.50;;;19.00;99.90;;;;;;5092828;28;20261;-85
2021/07/04 03:24:25;;;;;;;11.02;9.55;;;18.90;99.90;;;;;;5094541;28;20166;-84
2021/07/04 03:26:51;;;;;;;10.60;9.65;;;18.80;99.90;;;;;;5094750;28;20162;-84
2021/07/04 03:29:16;;;;;;;10.70;8.50;;;18.80;99.90;;;;;;5076750;28;20207;-84
2021/07/04 03:31:42;;;;;;;34.00;8.18;;;18.70;99.90;;;;;;5093342;28;20533;-84
2021/07/04 03:34:09;;;;;;;11.77;7.88;;;18.70;99.90;;;;;;5092135;28;20238;-83
2021/07/04 03:36:34;;;;;;;18.40;8.43;;;18.50;99.90;;;;;;5093135;28;20232;-84
2021/07/04 03:39:00;;;;;;;9.25;8.27;;;18.40;99.90;;;;;;5076093;28;20185;-84
2021/07/04 03:41:26;;;;;;;16.75;9.18;;;18.40;99.90;;;;;;5094177;28;20610;-84
2021/07/04 03:43:51;;;;;;;13.73;9.73;;;18.30;99.90;;;;;;5076209;28;20184;-84
2021/07/04 03:46:20;;;;;;;18.33;11.25;;;18.40;99.90;;;;;;5076111;28;20223;-84
2021/07/04 03:48:45;;;;;;;15.00;10.02;;;18.40;99.90;;;;;;5076364;28;20167;-83
2021/07/04 03:51:11;;;;;;;11.32;10.00;;;18.50;99.90;;;;;;5094215;28;20246;-84
2021/07/04 03:53:37;;;;;;;20.38;10.15;;;18.60;99.90;;;;;;5094158;28;20164;-84
2021/07/04 03:56:03;;;;;;;87.70;13.43;;;18.60;99.90;;;;;;5076193;28;20166;-84
2021/07/04 03:58:29;;;;;;;57.88;10.77;;;18.70;99.90;;;;;;5092967;28;20215;-83
2021/07/04 04:00:55;;;;;;;97.25;15.15;;;18.70;99.90;;;;;;5092697;28;20166;-84
2021/07/04 04:03:20;;;;;;;35.70;10.90;;;18.80;99.90;;;;;;5092864;28;20520;-84
2021/07/04 04:05:46;;;;;;;19.05;10.68;;;19.00;99.90;;;;;;5092859;28;20165;-84
2021/07/04 04:08:11;;;;;;;33.40;8.95;;;19.10;99.90;;;;;;5092585;28;20488;-84
2021/07/04 04:10:37;;;;;;;145.13;12.57;;;19.10;99.90;;;;;;5090665;28;20190;-83
2021/07/04 04:13:03;;;;;;;220.23;14.80;;;19.20;99.90;;;;;;5092695;28;20499;-84
2021/07/04 04:15:29;;;;;;;115.43;11.27;;;19.30;99.90;;;;;;5075814;28;20246;-84
2021/07/04 04:17:57;;;;;;;116.47;12.77;;;19.40;99.90;;;;;;5092679;28;20166;-83
2021/07/04 04:20:23;;;;;;;32.15;9.70;;;19.50;99.90;;;;;;5075761;28;20228;-84
2021/07/04 04:22:49;;;;;;;191.82;14.75;;;19.50;99.90;;;;;;5092667;28;20174;-86
2021/07/04 04:25:14;;;;;;;67.70;13.38;;;19.60;99.90;;;;;;5097382;28;20193;-84
2021/07/04 04:27:40;;;;;;;69.88;13.45;;;19.70;99.90;;;;;;5089825;28;20207;-83
2021/07/04 04:30:07;;;;;;;69.25;13.02;;;19.80;99.90;;;;;;5116201;28;20184;-86
2021/07/04 04:32:33;;;;;;;33.33;11.38;;;19.90;99.90;;;;;;5110353;28;20170;-84
2021/07/04 04:34:58;;;;;;;36.40;12.85;;;19.90;99.90;;;;;;5092593;28;20261;-83
2021/07/04 04:37:24;;;;;;;39.05;11.00;;;19.90;99.90;;;;;;5092572;28;20170;-83
2021/07/04 04:39:50;;;;;;;15.23;10.18;;;19.80;99.90;;;;;;5091932;28;20212;-84
2021/07/04 04:42:15;;;;;;;13.27;10.52;;;19.70;99.90;;;;;;5093989;28;20192;-84
2021/07/04 04:44:41;;;;;;;10.35;9.30;;;19.70;99.90;;;;;;5086995;28;20174;-84
2021/07/04 04:47:07;;;;;;;9.75;8.82;;;19.80;99.90;;;;;;5115125;28;20158;-85
2021/07/04 04:49:34;;;;;;;43.75;9.43;;;19.80;99.90;;;;;;5115942;28;20166;-84
2021/07/04 04:51:59;;;;;;;21.38;9.60;;;19.90;99.90;;;;;;5097251;28;20247;-83
2021/07/04 04:54:25;;;;;;;29.08;10.38;;;20.00;99.90;;;;;;5079407;28;20549;-83
2021/07/04 04:56:51;;;;;;;24.00;9.80;;;20.30;99.90;;;;;;5096331;28;20219;-84
2021/07/04 04:59:16;;;;;;;40.00;9.43;;;20.80;99.90;;;;;;5096343;28;20166;-84
2021/07/04 05:01:42;;;;;;;8.52;7.93;;;21.00;99.90;;;;;;5096018;28;20636;-84
2021/07/04 05:04:09;;;;;;;8.23;7.43;;;21.10;99.90;;;;;;5096247;28;20169;-84
2021/07/04 05:06:35;;;;;;;7.55;7.03;;;21.10;99.90;;;;;;5097439;28;20190;-83
2021/07/04 05:09:02;;;;;;;6.97;6.15;;;21.30;99.90;;;;;;5096186;28;20170;-84
2021/07/04 05:11:27;;;;;;;6.18;5.57;;;21.40;99.90;;;;;;5095895;28;20661;-83
2021/07/04 05:13:53;;;;;;;6.30;5.93;;;21.50;99.90;;;;;;5097367;28;20170;-83
2021/07/04 05:16:19;;;;;;;9.18;5.88;;;21.60;99.90;;;;;;5097196;28;20162;-83
2021/07/04 05:18:45;;;;;;;6.18;5.75;;;21.60;99.90;;;;;;5097202;28;20162;-84
2021/07/04 05:21:11;;;;;;;7.30;6.47;;;21.60;99.90;;;;;;5095378;28;20169;-84
2021/07/04 05:23:36;;;;;;;6.28;5.88;;;21.50;99.90;;;;;;5078952;28;20197;-83
2021/07/04 05:26:02;;;;;;;5.30;4.90;;;21.30;99.90;;;;;;5095750;28;20605;-84
2021/07/04 05:28:28;;;;;;;5.30;5.00;;;21.20;99.90;;;;;;5095682;28;20173;-84
2021/07/04 05:30:55;;;;;;;7.13;6.63;;;21.20;99.90;;;;;;5095357;28;20281;-83
2021/07/04 05:33:21;;;;;;;6.45;6.05;;;21.30;99.90;;;;;;5062075;28;20166;-84
2021/07/04 05:35:48;;;;;;;6.40;6.00;;;21.50;99.90;;;;;;5096900;28;20622;-84
2021/07/04 05:38:21;;;;;;;7.15;6.65;;;21.70;99.90;;;;;;5078761;28;20166;-83
2021/07/04 05:40:51;;;;;;;7.20;6.75;;;21.90;99.90;;;;;;5095339;28;20182;-84
2021/07/04 05:43:17;;;;;;;9.98;6.68;;;22.10;99.90;;;;;;5077982;28;20189;-84
2021/07/04 05:45:43;;;;;;;6.95;6.38;;;22.20;99.90;;;;;;5095238;28;20196;-84
2021/07/04 05:48:08;;;;;;;6.25;5.85;;;22.40;99.90;;;;;;5095470;28;20529;-84
2021/07/04 05:50:34;;;;;;;12.13;7.40;;;22.50;99.90;;;;;;5096693;28;20190;-84
2021/07/04 05:53:00;;;;;;;10.48;7.28;;;22.50;99.90;;;;;;5078021;28;20274;-83
2021/07/04 05:55:26;;;;;;;6.85;6.32;;;22.50;99.90;;;;;;5096575;28;20252;-84
2021/07/04 05:57:51;;;;;;;7.32;6.72;;;22.70;99.90;;;;;;5093972;28;20217;-83
2021/07/04 06:00:17;;;;;;;8.85;6.18;;;22.80;99.90;;;;;;5095289;28;20158;-84
2021/07/04 06:02:43;;;;;;;6.85;6.15;;;23.00;99.90;;;;;;5094525;28;20273;-84
2021/07/04 06:05:09;;;;;;;6.75;6.35;;;23.20;99.90;;;;;;5094982;28;20200;-83
2021/07/04 06:07:35;;;;;;;7.00;6.30;;;23.30;99.90;;;;;;5095015;28;20215;-84
2021/07/04 06:10:03;;;;;;;7.20;6.60;;;23.40;99.90;;;;;;5096129;28;20162;-84
2021/07/04 06:12:29;;;;;;;6.38;5.88;;;23.70;99.90;;;;;;5078056;28;20173;-84
2021/07/04 06:14:55;;;;;;;6.18;5.82;;;23.90;99.90;;;;;;5096648;28;20173;-84
2021/07/04 06:17:20;;;;;;;7.25;6.55;;;24.00;99.90;;;;;;5094808;28;20283;-84
2021/07/04 06:19:46;;;;;;;7.18;6.53;;;24.20;99.90;;;;;;5094839;28;20619;-81
2021/07/04 06:22:12;;;;;;;7.03;6.63;;;24.50;99.90;;;;;;5094227;28;20166;-84
2021/07/04 06:24:37;;;;;;;6.63;6.00;;;24.50;99.90;;;;;;5094928;28;20339;-84
2021/07/04 06:27:03;;;;;;;6.80;6.30;;;24.60;99.90;;;;;;5094664;28;20165;-84
2021/07/04 06:29:29;;;;;;;16.65;5.82;;;24.70;99.90;;;;;;5094598;28;20248;-87
2021/07/04 06:31:55;;;;;;;7.05;6.65;;;24.70;99.90;;;;;;5094258;28;20330;-84
2021/07/04 06:34:20;;;;;;;5.22;4.93;;;25.00;99.90;;;;;;5095570;28;20184;-74
2021/07/04 06:36:46;;;;;;;6.90;6.15;;;25.70;99.90;;;;;;5095143;28;20513;-74
2021/07/04 06:39:11;;;;;;;4.88;4.47;;;26.30;99.90;;;;;;5095569;28;20158;-73
2021/07/04 06:41:37;;;;;;;5.68;5.28;;;27.00;99.90;;;;;;5095576;28;20260;-73
2021/07/04 06:44:03;;;;;;;6.60;5.45;;;28.00;99.90;;;;;;5095130;28;20711;-73
2021/07/04 06:46:29;;;;;;;5.03;4.55;;;28.60;99.90;;;;;;5095285;28;20192;-74
2021/07/04 06:48:54;;;;;;;6.10;4.30;;;29.20;99.90;;;;;;5095263;28;20166;-74
2021/07/04 06:51:20;;;;;;;4.65;3.50;;;30.80;99.90;;;;;;5093637;28;20719;-74
2021/07/04 06:53:46;;;;;;;4.07;3.70;;;31.90;99.90;;;;;;5094550;28;20521;-73
2021/07/04 06:56:11;;;;;;;3.72;3.42;;;33.00;99.90;;;;;;5095191;28;20169;-73
2021/07/04 06:58:37;;;;;;;6.03;2.70;;;34.80;99.90;;;;;;5095246;28;20166;-73
2021/07/04 07:01:03;;;;;;;3.65;3.40;;;35.30;99.90;;;;;;5095574;28;20169;-73
2021/07/04 07:03:29;;;;;;;2.80;2.60;;;35.70;99.90;;;;;;5095585;28;20170;-71
2021/07/04 07:05:55;;;;;;;2.42;2.22;;;36.90;99.90;;;;;;5094907;28;20594;-72
2021/07/04 07:08:20;;;;;;;8.70;3.55;;;38.40;99.90;;;;;;5094773;28;20162;-71
2021/07/04 07:10:46;;;;;;;2.38;2.25;;;39.30;99.90;;;;;;5094616;28;20189;-72
2021/07/04 07:13:12;;;;;;;3.10;2.40;;;39.10;99.90;;;;;;5094486;28;20166;-71
2021/07/04 07:15:38;;;;;;;2.28;2.10;;;38.90;99.90;;;;;;5094340;28;20184;-71
2021/07/04 07:18:04;;;;;;;3.42;2.40;;;38.20;99.90;;;;;;5094546;28;20215;-71
2021/07/04 07:20:30;;;;;;;4.10;2.78;;;37.60;99.90;;;;;;5095565;28;20173;-74
2021/07/04 07:22:56;;;;;;;2.40;2.20;;;37.10;99.90;;;;;;5094988;28;20165;-74
2021/07/04 07:25:21;;;;;;;1.98;1.80;;;36.60;99.90;;;;;;5094637;28;20169;-74
2021/07/04 07:27:47;;;;;;;1.63;1.52;;;36.70;99.90;;;;;;5094702;28;20162;-74
2021/07/04 07:30:14;;;;;;;4.43;1.45;;;37.30;99.90;;;;;;5094424;28;20218;-74
2021/07/04 07:32:40;;;;;;;1.90;1.67;;;38.20;99.90;;;;;;5093704;28;20633;-74
2021/07/04 07:35:07;;;;;;;2.90;1.60;;;38.90;99.90;;;;;;5094490;28;20249;-74
2021/07/04 07:37:33;;;;;;;2.83;1.60;;;40.40;97.90;;;;;;5094478;28;20183;-75
2021/07/04 07:39:59;;;;;;;2.47;1.73;;;41.50;96.70;;;;;;5094401;28;20150;-74
2021/07/04 07:42:25;;;;;;;6.43;2.00;;;41.30;95.50;;;;;;5092270;28;20534;-74
2021/07/04 07:44:50;;;;;;;5.47;2.33;;;40.30;95.30;;;;;;5093966;28;20621;-74
2021/07/04 07:47:16;;;;;;;1.85;1.50;;;39.20;96.00;;;;;;5094149;28;20594;-74
2021/07/04 07:49:42;;;;;;;3.72;1.67;;;37.90;96.50;;;;;;5094237;28;20157;-74
2021/07/04 07:52:08;;;;;;;3.47;1.77;;;36.60;98.30;;;;;;5093481;28;20283;-74
2021/07/04 07:54:34;;;;;;;2.33;1.70;;;35.50;99.20;;;;;;5094302;28;20165;-74
2021/07/04 07:57:02;;;;;;;1.77;1.48;;;34.50;99.90;;;;;;5094416;28;20161;-71
2021/07/04 07:59:29;;;;;;;1.67;1.58;;;34.00;99.90;;;;;;5094072;28;20165;-71
2021/07/04 08:01:55;;;;;;;2.75;1.55;;;33.90;99.90;;;;;;5083847;28;20182;-71
2021/07/04 08:04:21;;;;;;;2.10;1.40;;;33.80;99.90;;;;;;5091561;28;20559;-75
2021/07/04 08:06:47;;;;;;;3.03;1.05;;;32.90;99.90;;;;;;5093145;28;20503;-71
2021/07/04 08:09:12;;;;;;;1.85;1.45;;;32.40;99.90;;;;;;5092846;28;20522;-71
2021/07/04 08:11:38;;;;;;;1.77;1.67;;;31.70;99.90;;;;;;5092323;28;20193;-72
2021/07/04 08:14:05;;;;;;;5.32;2.40;;;30.90;99.90;;;;;;5091973;28;20169;-71
2021/07/04 08:16:30;;;;;;;1.38;1.27;;;30.50;99.90;;;;;;5092340;28;20235;-73
2021/07/04 08:18:56;;;;;;;2.05;1.63;;;30.20;99.90;;;;;;5092610;28;20599;-74
2021/07/04 08:21:22;;;;;;;3.70;1.52;;;30.00;99.90;;;;;;5091960;28;20169;-74
2021/07/04 08:23:47;;;;;;;1.73;1.55;;;30.00;99.90;;;;;;5092413;28;20252;-73
2021/07/04 08:26:13;;;;;;;1.85;1.38;;;30.10;99.90;;;;;;5092609;28;20611;-74
2021/07/04 08:28:39;;;;;;;1.42;1.33;;;28.60;99.90;;;;;;5092577;28;20162;-74
2021/07/04 08:31:05;;;;;;;1.38;1.27;;;28.20;99.90;;;;;;5092035;28;20589;-73
2021/07/04 08:33:31;;;;;;;2.25;1.63;;;28.50;99.90;;;;;;5089662;28;20158;-73
2021/07/04 08:35:56;;;;;;;4.15;1.30;;;28.60;99.90;;;;;;5092546;28;20263;-73
2021/07/04 08:38:22;;;;;;;1.92;1.48;;;28.60;99.90;;;;;;5092541;28;20244;-74
2021/07/04 08:40:50;;;;;;;1.55;1.45;;;28.40;99.90;;;;;;5092435;28;20269;-74
2021/07/04 08:43:30;;;;;;;5.68;1.48;;;28.20;99.90;;;;;;5089317;28;20174;-73
2021/07/04 08:45:57;;;;;;;1.60;1.50;;;28.00;99.90;;;;;;5091356;28;20177;-74
2021/07/04 08:48:23;;;;;;;4.32;2.30;;;27.70;99.90;;;;;;5092100;28;20195;-76
2021/07/04 08:50:49;;;;;;;2.13;1.60;;;27.60;99.90;;;;;;5092471;28;20267;-73
2021/07/04 08:53:15;;;;;;;2.58;1.65;;;27.10;99.90;;;;;;5092402;28;20226;-74
2021/07/04 08:55:43;;;;;;;2.67;2.10;;;27.10;99.90;;;;;;5092111;28;20180;-74
2021/07/04 08:58:09;;;;;;;2.72;1.73;;;27.30;99.90;;;;;;5091271;28;20193;-74
2021/07/04 09:00:35;;;;;;;3.67;1.95;;;27.60;99.90;;;;;;5091581;28;20267;-74
2021/07/04 09:03:00;;;;;;;4.65;1.90;;;27.90;99.90;;;;;;5092462;28;20189;-74
2021/07/04 09:05:41;;;;;;;7.60;2.05;;;28.40;99.90;;;;;;5092948;28;20253;-74
2021/07/04 09:08:20;;;;;;;4.78;1.77;;;28.90;99.90;;;;;;5093132;28;20570;-74
2021/07/04 09:11:10;;;;;;;2.67;2.22;;;29.00;99.90;;;;;;5092697;28;20542;-74
2021/07/04 09:13:36;;;;;;;3.22;1.88;;;28.80;99.90;;;;;;5092619;28;20174;-73
2021/07/04 09:16:07;;;;;;;3.65;1.92;;;28.50;99.90;;;;;;5092047;28;20170;-74
2021/07/04 09:18:33;;;;;;;2.25;2.05;;;28.20;99.90;;;;;;5093450;28;20196;-73
2021/07/04 09:20:59;;;;;;;5.93;1.85;;;28.10;99.90;;;;;;5092968;28;20174;-73
2021/07/04 09:23:35;;;;;;;1.75;1.65;;;27.90;99.90;;;;;;5091575;28;20252;-74
2021/07/04 09:26:01;;;;;;;1.60;1.50;;;27.70;99.90;;;;;;5091471;28;20169;-74
2021/07/04 09:28:27;;;;;;;1.88;1.67;;;27.50;99.90;;;;;;5092045;28;20178;-74
2021/07/04 09:30:58;;;;;;;2.03;1.92;;;27.20;99.90;;;;;;5093683;28;20200;-73
2021/07/04 09:33:31;;;;;;;2.60;1.70;;;27.20;99.90;;;;;;5097827;28;20205;-73
2021/07/04 09:35:58;;;;;;;2.30;1.75;;;27.20;99.90;;;;;;5081470;28;20603;-74
2021/07/04 09:38:31;;;;;;;3.25;2.38;;;27.40;99.90;;;;;;5076996;28;20205;-73
2021/07/04 09:40:57;;;;;;;4.60;2.90;;;27.60;99.90;;;;;;5076148;28;20627;-74
2021/07/04 09:43:23;;;;;;;5.22;3.03;;;27.70;99.90;;;;;;5095932;28;20212;-74
2021/07/04 09:45:54;;;;;;;9.48;3.60;;;27.70;99.90;;;;;;5095314;28;20603;-73
2021/07/04 09:48:22;;;;;;;3.90;3.17;;;27.60;99.90;;;;;;5096535;28;20158;-74
2021/07/04 09:50:51;;;;;;;4.93;3.03;;;27.50;99.90;;;;;;5096384;28;20257;-73
2021/07/04 09:53:18;;;;;;;3.70;2.83;;;27.50;99.90;;;;;;5096685;28;20166;-74
2021/07/04 09:55:44;;;;;;;6.55;3.33;;;27.70;99.90;;;;;;5095341;28;20329;-74
2021/07/04 09:58:12;;;;;;;4.05;2.53;;;27.80;99.90;;;;;;5095920;28;20194;-74
2021/07/04 10:00:43;;;;;;;4.07;2.75;;;27.60;99.90;;;;;;5095937;28;20610;-74
2021/07/04 10:03:16;;;;;;;5.03;2.53;;;27.30;99.90;;;;;;5096143;28;20158;-74
2021/07/04 10:05:59;;;;;;;5.07;2.55;;;26.90;99.90;;;;;;5096020;28;20229;-74
2021/07/04 10:08:36;;;;;;;3.33;2.95;;;26.50;99.90;;;;;;5096468;28;20556;-74
2021/07/04 10:11:09;;;;;;;0.93;0.65;;;26.10;99.90;;;;;;5095538;28;20190;-77
2021/07/04 10:13:39;;;;;;;0.93;0.40;;;24.80;99.90;;;;;;5095451;28;20185;-73
2021/07/04 10:16:15;;;;;;;6.55;0.70;;;23.00;99.90;;;;;;5091834;28;20174;-86
2021/07/04 10:18:43;;;;;;;6.35;1.25;;;21.70;99.90;;;;;;5094477;28;20168;-84
2021/07/04 10:21:09;;;;;;;7.05;0.80;;;20.80;99.90;;;;;;5095967;28;20162;-84
2021/07/04 10:23:36;;;;;;;5.22;0.45;;;20.00;99.90;;;;;;5095341;28;20219;-82
2021/07/04 10:26:02;;;;;;;14.32;1.42;;;19.50;99.90;;;;;;5094639;28;20154;-86
2021/07/04 10:28:35;;;;;;;14.52;1.63;;;19.00;99.90;;;;;;5096444;28;20248;-92
2021/07/04 10:31:06;;;;;;;5.70;1.15;;;18.40;99.90;;;;;;5096220;28;20198;-89
2021/07/04 10:33:33;;;;;;;5.35;1.00;;;17.60;99.90;;;;;;5100232;28;20165;-90
2021/07/04 10:36:05;;;;;;;15.75;1.35;;;17.10;99.90;;;;;;5098752;28;20163;-89
2021/07/04 10:38:57;;;;;;;6.70;0.95;;;16.80;99.90;;;;;;5097426;28;20194;-91
2021/07/04 10:41:25;;;;;;;6.18;0.60;;;16.60;99.90;;;;;;5093590;28;20189;-92
2021/07/04 10:44:02;;;;;;;7.53;0.60;;;16.50;99.90;;;;;;5097520;28;20174;-91
2021/07/04 10:46:41;;;;;;;1.58;0.70;;;16.50;99.90;;;;;;5098806;28;20185;-92
2021/07/04 10:49:18;;;;;;;2.58;0.70;;;16.50;99.90;;;;;;5100526;28;20174;-91
2021/07/04 10:52:02;;;;;;;2.15;0.85;;;16.50;99.90;;;;;;5096520;28;20197;-89
2021/07/04 10:54:44;;;;;;;3.65;0.57;;;16.50;99.90;;;;;;5096926;28;20183;-89
2021/07/04 10:57:14;;;;;;;24.00;1.00;;;16.30;99.90;;;;;;5096791;28;20169;-89
2021/07/04 11:00:06;;;;;;;2.13;0.40;;;16.40;99.90;;;;;;5096389;28;20169;-89
2021/07/04 11:02:50;;;;;;;0.85;0.57;;;16.50;99.90;;;;;;5093454;28;20178;-89
2021/07/04 11:05:31;;;;;;;14.65;1.00;;;16.50;99.90;;;;;;5097072;28;20292;-89
2021/07/04 11:07:56;;;;;;;0.40;0.40;;;16.50;99.90;;;;;;5098284;28;20204;-88
2021/07/04 11:10:48;;;;;;;0.95;0.50;;;16.60;99.90;;;;;;5097850;28;20166;-87
2021/07/04 11:13:19;;;;;;;2.70;0.80;;;16.70;99.90;;;;;;5085303;28;20186;-87
2021/07/04 11:15:50;;;;;;;1.60;0.68;;;16.70;99.90;;;;;;5076540;28;20605;-88
2021/07/04 11:18:20;;;;;;;2.75;0.60;;;16.70;99.90;;;;;;5073717;28;20230;-88
2021/07/04 11:20:47;;;;;;;1.05;0.60;;;16.80;99.90;;;;;;5092234;28;20196;-89
2021/07/04 11:23:19;;;;;;;3.38;0.45;;;17.00;99.90;;;;;;5095308;28;20614;-88
2021/07/04 11:25:55;;;;;;;3.20;0.50;;;17.10;99.90;;;;;;5096041;28;20544;-88
2021/07/04 11:28:29;;;;;;;2.20;0.40;;;17.50;99.90;;;;;;5094438;28;20199;-89
2021/07/04 11:31:05;;;;;;;0.60;0.40;;;17.80;99.90;;;;;;5095718;28;20243;-88
2021/07/04 11:33:44;;;;;;;0.40;0.30;;;18.00;99.90;;;;;;5094589;28;20174;-89
2021/07/04 11:36:20;;;;;;;0.30;0.30;;;18.20;99.90;;;;;;5095599;28;20219;-87
2021/07/04 11:38:47;;;;;;;2.72;0.40;;;18.40;99.90;;;;;;5095278;28;20174;-87
2021/07/04 11:41:17;;;;;;;0.20;0.20;;;18.50;99.90;;;;;;5093308;28;20223;-87
2021/07/04 11:43:44;;;;;;;0.20;0.20;;;18.90;99.90;;;;;;5093650;28;20223;-87
2021/07/04 11:46:15;;;;;;;0.65;0.35;;;19.20;99.90;;;;;;5094878;28;20248;-86
2021/07/04 11:48:52;;;;;;;1.77;0.38;;;19.40;99.90;;;;;;5093364;28;20253;-86
2021/07/04 11:51:26;;;;;;;0.93;0.47;;;19.60;99.90;;;;;;5093132;28;20711;-88
2021/07/04 11:53:54;;;;;;;2.40;0.60;;;19.80;99.90;;;;;;5093442;28;20192;-86
2021/07/04 11:56:20;;;;;;;0.45;0.30;;;19.90;99.90;;;;;;5095357;28;20162;-87
2021/07/04 11:58:45;;;;;;;0.20;0.20;;;20.00;99.90;;;;;;5101027;28;20656;-88
2021/07/04 12:01:16;;;;;;;0.35;0.20;;;19.90;99.90;;;;;;5115603;28;20185;-87
2021/07/04 12:03:41;;;;;;;0.20;0.20;;;19.80;99.90;;;;;;5129959;22;20184;-85
2021/07/04 12:06:07;;;;;;;4.22;0.38;;;19.70;99.90;;;;;;5093971;28;20634;-85
2021/07/04 12:09:05;;;;;;;0.20;0.20;;;19.70;99.90;;;;;;5075996;28;20201;-84
2021/07/04 12:11:52;;;;;;;3.03;0.40;;;19.60;99.90;;;;;;5075778;28;20200;-84
2021/07/04 12:14:21;;;;;;;0.50;0.40;;;19.90;99.90;;;;;;5094337;28;20154;-85
2021/07/04 12:16:46;;;;;;;2.53;0.30;;;20.10;99.90;;;;;;5094484;28;20171;-88
2021/07/04 12:19:43;;;;;;;3.83;0.35;;;20.40;99.90;;;;;;5076194;28;20190;-84
2021/07/04 12:22:18;;;;;;;0.65;0.43;;;20.50;99.90;;;;;;5073987;28;20167;-85
2021/07/04 12:24:44;;;;;;;0.40;0.40;;;20.70;99.90;;;;;;5074098;28;20158;-84
2021/07/04 12:27:10;;;;;;;0.47;0.47;;;20.80;99.90;;;;;;5056033;28;20576;-87
2021/07/04 12:30:07;;;;;;;1.00;0.43;;;21.20;99.90;;;;;;5058046;28;20228;-89
2021/07/04 12:32:40;;;;;;;0.98;0.38;;;21.50;99.90;;;;;;5091837;28;20198;-87
2021/07/04 12:35:08;;;;;;;0.40;0.40;;;21.70;99.90;;;;;;5076451;28;20178;-89
2021/07/04 12:37:34;;;;;;;0.75;0.30;;;22.10;99.90;;;;;;5076614;28;20569;-89
2021/07/04 12:40:15;;;;;;;0.63;0.50;;;22.40;99.90;;;;;;5084098;28;20265;-88
2021/07/04 12:42:42;;;;;;;0.30;0.30;;;22.60;99.90;;;;;;5094567;28;20158;-90
2021/07/04 12:45:11;;;;;;;4.10;0.35;;;22.90;99.90;;;;;;5094439;28;20170;-88
2021/07/04 12:47:38;;;;;;;0.85;0.20;;;23.20;99.90;;;;;;5094409;28;20166;-89